createdAt,value
2018-07-04T00:01:34.449Z,17.17
2018-07-04T00:04:48.758Z,17.16
2018-07-04T00:08:06.692Z,17.10
2018-07-04T00:11:22.156Z,17.08
2018-07-04T00:14:42.110Z,17.12
2018-07-04T00:17:56.455Z,17.17
2018-07-04T00:21:10.724Z,17.16
2018-07-04T00:24:26.980Z,17.12
2018-07-04T00:27:41.182Z,17.00
2018-07-04T00:31:01.342Z,16.87
2018-07-04T00:34:21.393Z,16.72
2018-07-04T00:37:36.784Z,16.57
2018-07-04T00:40:52.207Z,16.38
2018-07-04T00:44:07.647Z,16.23
2018-07-04T00:47:21.832Z,16.11
2018-07-04T00:50:38.254Z,16.03
2018-07-04T00:53:52.614Z,15.90
2018-07-04T00:57:12.894Z,15.83
2018-07-04T01:00:27.211Z,15.76
2018-07-04T01:03:41.605Z,15.66
2018-07-04T01:06:55.893Z,15.57
2018-07-04T01:10:10.345Z,15.44
2018-07-04T01:13:25.666Z,15.35
2018-07-04T01:16:40.027Z,15.31
2018-07-04T01:19:56.343Z,15.28
2018-07-04T01:23:11.670Z,15.25
2018-07-04T01:26:27.097Z,15.27
2018-07-04T01:29:42.348Z,15.36
2018-07-04T01:32:57.726Z,15.47
2018-07-04T01:36:17.910Z,15.56
2018-07-04T01:39:32.057Z,15.52
2018-07-04T01:42:46.422Z,15.42
2018-07-04T01:46:00.809Z,15.46
2018-07-04T01:49:17.077Z,15.52
2018-07-04T01:52:31.474Z,15.55
2018-07-04T01:55:46.675Z,15.56
2018-07-04T01:59:04.291Z,15.51
2018-07-04T02:02:18.597Z,15.42
2018-07-04T02:05:34.980Z,15.28
2018-07-04T02:08:51.266Z,15.13
2018-07-04T02:12:05.484Z,14.96
2018-07-04T02:15:21.814Z,14.81
2018-07-04T02:18:41.111Z,14.74
2018-07-04T02:22:02.249Z,14.72
2018-07-04T02:25:17.653Z,14.75
2018-07-04T02:28:33.926Z,14.73
2018-07-04T02:31:48.254Z,14.76
2018-07-04T02:35:07.568Z,14.72
2018-07-04T02:38:22.868Z,14.70
2018-07-04T02:41:37.179Z,14.74
2018-07-04T02:44:51.523Z,14.73
2018-07-04T02:48:12.676Z,14.77
2018-07-04T02:51:27.914Z,14.75
2018-07-04T02:54:42.205Z,14.74
2018-07-04T02:57:56.693Z,14.75
2018-07-04T03:01:12.752Z,14.79
2018-07-04T03:04:28.060Z,14.83
2018-07-04T03:07:43.466Z,14.80
2018-07-04T03:11:03.656Z,14.70
2018-07-04T03:14:20.043Z,14.66
2018-07-04T03:17:35.353Z,14.63
2018-07-04T03:20:50.749Z,14.60
2018-07-04T03:24:06.976Z,14.55
2018-07-04T03:27:21.329Z,14.55
2018-07-04T03:30:39.558Z,14.55
2018-07-04T03:33:53.937Z,14.53
2018-07-04T03:37:09.246Z,14.51
2018-07-04T03:40:23.567Z,14.48
2018-07-04T03:43:38.794Z,14.47
2018-07-04T03:46:53.050Z,14.54
2018-07-04T03:50:13.207Z,14.64
2018-07-04T03:53:27.366Z,14.81
2018-07-04T03:56:43.609Z,15.01
2018-07-04T04:00:03.661Z,15.10
2018-07-04T04:03:22.973Z,15.23
2018-07-04T04:06:37.423Z,15.24
2018-07-04T04:09:52.887Z,15.34
2018-07-04T04:13:07.122Z,15.50
2018-07-04T04:16:22.433Z,15.61
2018-07-04T04:19:37.698Z,15.63
2018-07-04T04:22:51.885Z,15.77
2018-07-04T04:26:06.297Z,16.13
2018-07-04T04:29:20.500Z,16.84
2018-07-04T04:32:37.917Z,17.35
2018-07-04T04:35:55.409Z,17.52
2018-07-04T04:39:09.764Z,17.69
2018-07-04T04:42:24.106Z,17.82
2018-07-04T04:45:43.393Z,18.10
2018-07-04T04:48:58.688Z,18.96
2018-07-04T04:52:14.532Z,19.17
2018-07-04T04:55:28.805Z,18.92
2018-07-04T04:58:42.979Z,19.11
2018-07-04T05:02:06.374Z,19.28
2018-07-04T05:05:20.685Z,19.28
2018-07-04T05:08:34.836Z,19.22
2018-07-04T05:11:50.037Z,19.21
2018-07-04T05:15:05.253Z,19.26
2018-07-04T05:18:19.444Z,19.31
2018-07-04T05:21:34.717Z,19.92
2018-07-04T05:24:53.921Z,22.82
2018-07-04T05:28:09.319Z,24.41
2018-07-04T05:31:24.715Z,25.25
2018-07-04T05:34:45.768Z,25.98
2018-07-04T05:38:02.158Z,27.21
2018-07-04T05:41:16.381Z,27.27
2018-07-04T05:44:31.671Z,27.50
2018-07-04T05:47:45.909Z,26.40
2018-07-04T05:51:01.231Z,25.61
2018-07-04T05:54:21.221Z,24.70
2018-07-04T05:57:37.391Z,25.03
2018-07-04T06:00:55.625Z,25.39
2018-07-04T06:04:18.866Z,25.29
2018-07-04T06:07:37.383Z,25.43
2018-07-04T06:10:51.664Z,25.31
2018-07-04T06:14:07.929Z,26.01
2018-07-04T06:17:22.721Z,28.04
2018-07-04T06:20:36.922Z,28.74
2018-07-04T06:23:55.008Z,29.72
2018-07-04T06:27:09.197Z,27.04
2018-07-04T06:30:24.641Z,25.18
2018-07-04T06:33:39.877Z,24.20
2018-07-04T06:36:56.259Z,24.50
2018-07-04T06:39:58.249Z,25.43
2018-07-04T06:43:01.261Z,27.02
2018-07-04T06:46:05.240Z,28.97
2018-07-04T06:49:13.081Z,29.44
2018-07-04T06:52:15.669Z,28.00
2018-07-04T06:55:29.045Z,27.75
2018-07-04T06:58:33.079Z,29.74
2018-07-04T07:01:34.842Z,31.53
2018-07-04T07:04:51.176Z,31.80
2018-07-04T07:08:05.481Z,31.60
2018-07-04T07:11:27.639Z,31.09
2018-07-04T07:14:41.853Z,30.89
2018-07-04T07:17:55.897Z,32.11
2018-07-04T07:21:17.115Z,33.00
2018-07-04T07:24:37.042Z,34.05
2018-07-04T07:27:58.986Z,33.08
2018-07-04T07:31:21.059Z,33.03
2018-07-04T07:34:35.400Z,31.07
2018-07-04T07:37:52.885Z,32.78
2018-07-04T07:41:13.707Z,32.49
2018-07-04T07:44:30.018Z,32.60
2018-07-04T07:47:45.434Z,31.16
2018-07-04T07:51:06.609Z,30.88
2018-07-04T07:54:20.868Z,29.98
2018-07-04T07:57:36.150Z,31.38
2018-07-04T08:00:57.116Z,31.46
2018-07-04T08:04:17.071Z,30.39
2018-07-04T08:07:33.370Z,29.64
2018-07-04T08:10:47.552Z,30.43
2018-07-04T08:14:01.952Z,30.27
2018-07-04T08:17:23.889Z,30.70
2018-07-04T08:20:38.167Z,30.42
2018-07-04T08:23:58.281Z,30.78
2018-07-04T08:27:17.654Z,31.41
2018-07-04T08:30:38.618Z,32.52
2018-07-04T08:33:58.587Z,32.33
2018-07-04T08:37:14.520Z,31.96
2018-07-04T08:40:38.662Z,32.45
2018-07-04T08:43:53.026Z,33.30
2018-07-04T08:47:07.320Z,32.74
2018-07-04T08:50:27.315Z,31.14
2018-07-04T08:53:48.547Z,32.01
2018-07-04T08:57:02.784Z,30.98
2018-07-04T09:00:23.878Z,31.52
2018-07-04T09:03:38.250Z,31.18
2018-07-04T09:06:56.986Z,30.94
2018-07-04T09:10:18.178Z,31.19
2018-07-04T09:13:32.397Z,32.61
2018-07-04T09:16:47.775Z,32.51
2018-07-04T09:20:08.846Z,32.53
2018-07-04T09:23:24.165Z,32.61
2018-07-04T09:26:45.343Z,31.82
2018-07-04T09:29:59.546Z,32.12
2018-07-04T09:33:14.800Z,32.13
2018-07-04T09:36:34.790Z,33.05
2018-07-04T09:39:50.130Z,33.97
2018-07-04T09:43:12.134Z,35.07
2018-07-04T09:46:32.298Z,34.14
2018-07-04T09:49:47.680Z,33.69
2018-07-04T09:53:08.566Z,32.83
2018-07-04T09:56:22.733Z,31.32
2018-07-04T09:59:38.006Z,31.82
2018-07-04T10:02:53.357Z,32.79
2018-07-04T10:06:08.764Z,33.59
2018-07-04T10:09:24.143Z,32.14
2018-07-04T10:12:38.566Z,30.16
2018-07-04T10:15:52.871Z,28.24
2018-07-04T10:19:07.229Z,27.90
2018-07-04T10:22:28.336Z,27.77
2018-07-04T10:25:48.352Z,27.61
2018-07-04T10:29:06.586Z,28.11
2018-07-04T10:32:26.670Z,28.77
2018-07-04T10:35:40.852Z,28.36
2018-07-04T10:39:07.273Z,28.00
2018-07-04T10:42:22.499Z,28.38
2018-07-04T10:45:36.794Z,28.46
2018-07-04T10:48:52.080Z,28.36
2018-07-04T10:52:06.349Z,28.01
2018-07-04T10:55:20.608Z,28.23
2018-07-04T10:58:41.647Z,28.54
2018-07-04T11:02:01.753Z,28.89
2018-07-04T11:05:16.174Z,28.64
2018-07-04T11:08:30.428Z,28.12
2018-07-04T11:11:55.060Z,27.83
2018-07-04T11:15:09.397Z,27.84
2018-07-04T11:18:24.848Z,28.02
2018-07-04T11:21:40.256Z,28.11
2018-07-04T11:24:56.537Z,28.26
2018-07-04T11:28:11.849Z,28.18
2018-07-04T11:31:26.070Z,28.23
2018-07-04T11:34:41.458Z,27.93
2018-07-04T11:37:55.662Z,28.54
2018-07-04T11:41:11.103Z,27.66
2018-07-04T11:44:26.496Z,27.02
2018-07-04T11:47:29.506Z,27.16
2018-07-04T11:50:31.056Z,27.52
2018-07-04T11:53:41.010Z,27.58
2018-07-04T11:56:44.185Z,27.63
2018-07-04T11:59:47.109Z,27.92
2018-07-04T12:02:51.160Z,28.32
2018-07-04T12:06:17.065Z,28.75
2018-07-04T12:09:21.035Z,30.01
2018-07-04T12:12:22.966Z,30.83
2018-07-04T12:15:26.018Z,30.35
2018-07-04T12:18:28.067Z,30.75
2018-07-04T12:21:31.095Z,30.91
2018-07-04T12:24:33.025Z,30.65
2018-07-04T12:27:36.034Z,31.33
2018-07-04T12:30:37.530Z,30.89
2018-07-04T12:33:40.071Z,31.55
2018-07-04T12:36:42.561Z,31.90
2018-07-04T12:39:49.408Z,33.24
2018-07-04T12:42:52.412Z,31.99
2018-07-04T12:45:55.382Z,31.23
2018-07-04T12:49:00.165Z,30.29
2018-07-04T12:52:02.177Z,29.37
2018-07-04T12:55:17.352Z,29.06
2018-07-04T12:58:32.627Z,29.16
2018-07-04T13:01:46.912Z,29.59
2018-07-04T13:05:02.190Z,29.34
2018-07-04T13:08:16.417Z,29.51
2018-07-04T13:11:31.714Z,30.03
2018-07-04T13:14:50.319Z,29.85
2018-07-04T13:18:05.735Z,29.49
2018-07-04T13:21:24.613Z,29.22
2018-07-04T13:24:38.897Z,28.90
2018-07-04T13:27:55.151Z,28.54
2018-07-04T13:31:09.314Z,28.67
2018-07-04T13:34:24.540Z,28.61
2018-07-04T13:37:39.874Z,28.50
2018-07-04T13:40:55.320Z,28.21
2018-07-04T13:44:15.781Z,28.01
2018-07-04T13:47:31.066Z,27.69
2018-07-04T13:50:51.135Z,27.54
2018-07-04T13:54:07.444Z,27.66
2018-07-04T13:57:22.869Z,27.38
2018-07-04T14:00:37.211Z,27.05
2018-07-04T14:03:51.634Z,27.40
2018-07-04T14:07:11.656Z,27.38
2018-07-04T14:10:29.300Z,27.15
2018-07-04T14:13:43.653Z,26.98
2018-07-04T14:17:04.741Z,26.93
2018-07-04T14:20:19.127Z,27.20
2018-07-04T14:23:33.605Z,26.99
2018-07-04T14:26:47.789Z,26.89
2018-07-04T14:30:01.977Z,26.97
2018-07-04T14:33:17.166Z,27.04
2018-07-04T14:36:33.655Z,27.30
2018-07-04T14:39:49.038Z,26.97
2018-07-04T14:43:04.309Z,27.14
2018-07-04T14:46:19.610Z,27.16
2018-07-04T14:49:33.922Z,27.11
2018-07-04T14:52:49.794Z,26.66
2018-07-04T14:56:08.695Z,26.65
2018-07-04T14:59:23.978Z,26.62
2018-07-04T15:02:43.979Z,27.03
2018-07-04T15:05:59.129Z,27.48
2018-07-04T15:09:14.337Z,27.69
2018-07-04T15:12:29.581Z,27.57
2018-07-04T15:15:43.911Z,27.29
2018-07-04T15:19:03.362Z,27.21
2018-07-04T15:22:22.371Z,26.78
2018-07-04T15:25:38.636Z,26.57
2018-07-04T15:28:53.858Z,26.54
2018-07-04T15:32:08.130Z,26.72
2018-07-04T15:35:27.318Z,26.44
2018-07-04T15:38:42.870Z,26.27
2018-07-04T15:42:03.587Z,26.25
2018-07-04T15:45:22.313Z,26.21
2018-07-04T15:48:36.551Z,26.11
2018-07-04T15:51:50.829Z,26.14
2018-07-04T15:55:05.179Z,25.76
2018-07-04T15:58:23.069Z,25.70
2018-07-04T16:01:38.543Z,25.56
2018-07-04T16:04:56.372Z,25.40
2018-07-04T16:08:10.528Z,25.32
2018-07-04T16:11:36.011Z,25.53
2018-07-04T16:14:52.326Z,25.42
2018-07-04T16:18:08.499Z,25.28
2018-07-04T16:21:36.690Z,25.13
2018-07-04T16:24:57.157Z,25.06
2018-07-04T16:28:22.142Z,25.27
2018-07-04T16:31:36.375Z,25.23
2018-07-04T16:34:51.564Z,25.22
2018-07-04T16:38:06.745Z,25.10
2018-07-04T16:41:28.718Z,25.11
2018-07-04T16:44:43.973Z,25.30
2018-07-04T16:47:58.479Z,25.46
2018-07-04T16:51:13.888Z,25.60
2018-07-04T16:54:28.254Z,25.70
2018-07-04T16:57:47.365Z,25.68
2018-07-04T17:01:12.914Z,25.68
2018-07-04T17:04:27.321Z,25.65
2018-07-04T17:07:48.395Z,25.29
2018-07-04T17:11:04.679Z,24.99
2018-07-04T17:14:18.975Z,24.74
2018-07-04T17:17:39.054Z,24.23
2018-07-04T17:20:55.287Z,23.88
2018-07-04T17:24:12.109Z,23.71
2018-07-04T17:27:33.290Z,23.61
2018-07-04T17:30:49.674Z,23.43
2018-07-04T17:34:03.985Z,23.47
2018-07-04T17:37:26.123Z,23.48
2018-07-04T17:40:42.554Z,23.43
2018-07-04T17:43:57.832Z,23.39
2018-07-04T17:47:17.249Z,23.38
2018-07-04T17:50:31.487Z,23.42
2018-07-04T17:53:47.144Z,23.34
2018-07-04T17:57:09.262Z,23.27
2018-07-04T18:00:23.486Z,23.39
2018-07-04T18:03:42.673Z,23.40
2018-07-04T18:06:59.005Z,23.35
2018-07-04T18:10:13.271Z,23.36
2018-07-04T18:13:28.469Z,23.44
2018-07-04T18:16:43.707Z,23.54
2018-07-04T18:19:58.945Z,23.75
2018-07-04T18:23:13.149Z,23.75
2018-07-04T18:26:28.309Z,23.39
2018-07-04T18:29:42.749Z,23.08
2018-07-04T18:32:56.969Z,23.05
2018-07-04T18:36:17.926Z,23.07
2018-07-04T18:39:33.161Z,22.93
2018-07-04T18:42:47.474Z,23.01
2018-07-04T18:46:07.348Z,23.26
2018-07-04T18:49:22.106Z,23.41
2018-07-04T18:52:36.337Z,23.50
2018-07-04T18:55:58.059Z,23.30
2018-07-04T18:59:12.353Z,22.99
2018-07-04T19:02:31.094Z,22.79
2018-07-04T19:05:45.287Z,22.59
2018-07-04T19:09:00.688Z,22.45
2018-07-04T19:12:22.870Z,22.46
2018-07-04T19:15:46.479Z,22.42
2018-07-04T19:19:08.597Z,22.38
2018-07-04T19:22:28.742Z,22.41
2018-07-04T19:25:45.078Z,22.46
2018-07-04T19:29:05.210Z,22.42
2018-07-04T19:35:49.624Z,21.97
2018-07-04T19:39:05.838Z,21.69
2018-07-04T19:42:29.910Z,21.42
2018-07-04T19:45:49.342Z,21.19
2018-07-04T19:49:03.861Z,21.09
2018-07-04T19:52:22.532Z,21.01
2018-07-04T19:55:36.883Z,20.60
2018-07-04T19:58:54.422Z,20.40
2018-07-04T20:02:14.290Z,20.23
2018-07-04T20:05:37.811Z,20.12
2018-07-04T20:08:52.075Z,20.11
2018-07-04T20:12:06.465Z,20.04
2018-07-04T20:15:21.420Z,20.14
2018-07-04T20:18:36.752Z,20.16
2018-07-04T20:21:51.041Z,20.04
2018-07-04T20:25:05.186Z,19.74
2018-07-04T20:28:27.802Z,19.56
2018-07-04T20:31:44.158Z,19.66
2018-07-04T20:34:59.633Z,19.42
2018-07-04T20:38:13.801Z,19.25
2018-07-04T20:41:28.211Z,19.03
2018-07-04T20:44:43.442Z,18.86
2018-07-04T20:48:03.540Z,18.69
2018-07-04T20:51:19.030Z,18.35
2018-07-04T21:01:31.930Z,17.86
2018-07-04T21:04:53.006Z,17.78
2018-07-04T21:08:12.114Z,17.71
2018-07-04T21:11:29.536Z,17.62
2018-07-04T21:14:43.827Z,17.63
2018-07-04T21:17:59.154Z,17.60
2018-07-04T21:21:14.503Z,17.64
2018-07-04T21:24:37.122Z,17.48
2018-07-04T21:27:52.811Z,17.33
2018-07-04T21:31:09.801Z,17.30
2018-07-04T21:34:24.246Z,17.37
2018-07-04T21:37:38.951Z,17.45
2018-07-04T21:41:07.194Z,17.51
2018-07-04T21:44:22.750Z,17.48
2018-07-04T21:47:44.362Z,17.23
2018-07-04T21:51:00.197Z,17.03
2018-07-04T21:54:14.862Z,16.89
2018-07-04T21:57:29.487Z,16.84
2018-07-04T22:00:43.859Z,16.87
2018-07-04T22:04:04.519Z,16.86
2018-07-04T22:07:19.963Z,16.87
2018-07-04T22:10:35.038Z,16.91
2018-07-04T22:13:55.451Z,16.84
2018-07-04T22:17:10.274Z,16.72
2018-07-04T22:20:30.914Z,16.68
2018-07-04T22:23:47.420Z,16.60
2018-07-04T22:27:01.735Z,16.60
2018-07-04T22:30:16.384Z,16.54
2018-07-04T22:33:35.457Z,16.48
2018-07-04T22:36:55.083Z,16.50
2018-07-04T22:40:12.676Z,16.52
2018-07-04T22:43:27.208Z,16.40
2018-07-04T22:46:46.219Z,16.29
2018-07-04T22:50:00.908Z,16.19
2018-07-04T22:53:17.638Z,16.04
2018-07-04T22:56:32.179Z,15.92
2018-07-04T22:59:46.599Z,15.91
2018-07-04T23:03:01.798Z,15.90
2018-07-04T23:06:16.746Z,15.79
2018-07-04T23:09:31.050Z,15.70
2018-07-04T23:12:53.225Z,15.70
2018-07-04T23:16:13.143Z,15.80
2018-07-04T23:19:31.469Z,15.85
2018-07-04T23:22:45.882Z,15.95
2018-07-04T23:26:02.659Z,15.94
2018-07-04T23:29:17.922Z,15.89
2018-07-04T23:32:32.581Z,15.84
2018-07-04T23:35:54.074Z,15.82
2018-07-04T23:39:08.589Z,15.78
2018-07-04T23:42:22.795Z,15.61
2018-07-04T23:45:39.855Z,15.08
2018-07-04T23:48:57.894Z,14.96
2018-07-04T23:52:13.667Z,15.00
2018-07-04T23:55:29.977Z,15.00
2018-07-04T23:58:44.286Z,15.10
